Time;durP1;ratioP1;P1;durP2;ratioP2;P2;SDS_P1;SDS_P2;PMS_P1;PMS_P2;Temp;Humidity;BMP_temperature;BMP_pressure;BME280_temperature;BME280_humidity;BME280_pressure;Samples;Min_cycle;Max_cycle;Signal;HPM_P1;HPM_P2
2021/09/19 00:00:37;;;;;;;2.28;2.05;;;;;;;13.75;88.46;100353.16;5083108;28;20044;-52
2021/09/19 00:03:04;;;;;;;3.47;2.20;;;;;;;13.74;88.10;100349.63;5061544;28;20052;-52
2021/09/19 00:05:30;;;;;;;2.83;2.10;;;;;;;13.70;88.78;100348.97;5067876;28;20443;-52
2021/09/19 00:07:57;;;;;;;3.25;2.20;;;;;;;13.73;89.49;100357.72;5077905;28;20051;-52
2021/09/19 00:10:23;;;;;;;2.20;2.00;;;;;;;13.69;88.66;100360.56;5077635;28;20054;-52
2021/09/19 00:12:50;;;;;;;2.88;2.05;;;;;;;13.68;88.24;100352.69;5081757;28;20040;-51
2021/09/19 00:15:18;;;;;;;2.30;2.00;;;;;;;13.65;87.92;100355.53;5083179;28;20048;-52
2021/09/19 00:17:45;;;;;;;2.13;1.88;;;;;;;13.62;88.67;100350.38;5074926;28;20056;-52
2021/09/19 00:20:12;;;;;;;2.97;1.90;;;;;;;13.62;89.24;100353.03;5070282;28;20100;-52
2021/09/19 00:22:40;;;;;;;2.03;1.90;;;;;;;13.60;88.61;100354.94;5080737;28;20040;-54
2021/09/19 00:25:09;;;;;;;3.65;2.50;;;;;;;13.60;88.36;100352.28;5079740;28;20043;-52
2021/09/19 00:27:36;;;;;;;3.95;2.42;;;;;;;13.53;88.83;100354.47;5078446;28;20047;-53
2021/09/19 00:30:05;;;;;;;2.72;2.30;;;;;;;13.50;89.05;100348.47;5076743;28;20052;-53
2021/09/19 00:32:32;;;;;;;3.53;2.30;;;;;;;13.45;89.17;100350.53;5072805;28;20043;-53
2021/09/19 00:34:58;;;;;;;5.63;2.50;;;;;;;13.44;89.12;100349.69;5082260;28;20051;-52
2021/09/19 00:37:25;;;;;;;3.17;2.03;;;;;;;13.46;89.70;100346.94;5072312;28;20047;-52
2021/09/19 00:39:51;;;;;;;3.10;2.30;;;;;;;13.45;90.61;100353.19;5074086;28;21717;-52
2021/09/19 00:42:18;;;;;;;2.40;2.20;;;;;;;13.41;89.44;100355.19;5076485;28;20043;-51
2021/09/19 00:44:44;;;;;;;4.18;2.58;;;;;;;13.37;89.09;100350.16;5083130;28;20050;-52
2021/09/19 00:47:11;;;;;;;3.45;2.25;;;;;;;13.34;89.06;100349.38;5084640;28;20584;-52
2021/09/19 00:49:37;;;;;;;3.15;2.65;;;;;;;13.23;90.23;100342.97;5076040;28;20048;-52
2021/09/19 00:52:04;;;;;;;4.03;2.35;;;;;;;13.27;89.93;100352.47;5077581;28;20055;-53
2021/09/19 00:54:39;;;;;;;3.00;2.60;;;;;;;13.26;91.10;100353.41;5073895;28;20040;-52
2021/09/19 00:57:07;;;;;;;3.67;2.15;;;;;;;13.25;91.16;100354.38;5076971;28;20040;-52
2021/09/19 00:59:38;;;;;;;3.85;2.65;;;;;;;13.19;90.59;100346.75;5079737;28;20726;-53
2021/09/19 01:02:05;;;;;;;3.15;2.53;;;;;;;13.18;91.53;100350.38;5079801;28;20058;-53
2021/09/19 01:04:33;;;;;;;2.70;2.50;;;;;;;13.19;90.50;100333.47;5078063;28;20075;-52
2021/09/19 01:07:01;;;;;;;5.18;2.53;;;;;;;13.20;91.54;100343.16;5081102;28;20040;-53
2021/09/19 01:09:28;;;;;;;3.80;2.63;;;;;;;13.19;91.80;100336.13;5077868;28;20051;-52
2021/09/19 01:11:55;;;;;;;4.75;2.70;;;;;;;13.18;91.35;100337.06;5075513;28;20047;-52
2021/09/19 01:14:24;;;;;;;3.05;2.40;;;;;;;13.18;90.95;100329.09;5070824;28;20040;-53
2021/09/19 01:16:51;;;;;;;4.47;2.70;;;;;;;13.13;91.29;100328.47;5081722;28;20051;-52
2021/09/19 01:19:22;;;;;;;2.70;2.50;;;;;;;13.09;91.44;100329.59;5080000;28;20047;-51
2021/09/19 01:21:48;;;;;;;3.80;2.45;;;;;;;12.94;92.15;100310.06;5080596;28;20044;-52
2021/09/19 01:24:15;;;;;;;2.97;2.58;;;;;;;13.05;92.00;100330.72;5082722;28;20046;-52
2021/09/19 01:26:42;;;;;;;4.75;2.78;;;;;;;13.01;91.87;100327.38;5080781;28;20409;-52
2021/09/19 01:29:09;;;;;;;4.10;2.65;;;;;;;12.95;92.28;100333.03;5083654;28;20052;-52
2021/09/19 01:31:35;;;;;;;5.22;2.88;;;;;;;12.92;93.19;100326.09;5073077;28;20048;-52
2021/09/19 01:34:03;;;;;;;3.90;2.80;;;;;;;12.94;92.70;100332.19;5080464;28;20044;-52
2021/09/19 01:36:36;;;;;;;4.28;2.90;;;;;;;12.93;92.85;100335.78;5082913;28;20040;-52
2021/09/19 01:39:07;;;;;;;3.28;2.90;;;;;;;12.90;93.12;100329.81;5083638;28;20048;-52
2021/09/19 01:41:34;;;;;;;2.92;2.63;;;;;;;12.86;93.38;100323.81;5080915;28;20432;-52
2021/09/19 01:44:03;;;;;;;4.20;3.10;;;;;;;12.84;93.34;100332.81;5082078;28;20497;-52
2021/09/19 01:46:31;;;;;;;3.88;2.92;;;;;;;12.85;93.30;100315.94;5078810;28;20050;-53
2021/09/19 01:48:57;;;;;;;3.50;3.00;;;;;;;12.84;93.24;100317.72;5081059;28;20709;-54
2021/09/19 01:51:24;;;;;;;3.58;3.25;;;;;;;12.77;93.79;100311.03;5084860;28;20059;-53
2021/09/19 01:53:51;;;;;;;3.78;3.42;;;;;;;12.74;93.85;100316.56;5080539;28;20055;-51
2021/09/19 01:56:19;;;;;;;6.40;3.33;;;;;;;12.70;93.37;100311.50;5078467;28;20500;-52
2021/09/19 01:58:50;;;;;;;3.85;3.42;;;;;;;12.68;93.82;100308.91;5083183;28;20044;-52
2021/09/19 02:01:21;;;;;;;3.85;3.35;;;;;;;12.65;94.22;100309.94;5083550;28;20047;-53
2021/09/19 02:03:50;;;;;;;3.28;2.80;;;;;;;12.60;94.38;100306.69;5078192;28;20068;-53
2021/09/19 02:06:17;;;;;;;4.25;3.30;;;;;;;12.59;94.62;100301.50;5079325;28;20048;-53
2021/09/19 02:08:45;;;;;;;3.70;2.85;;;;;;;12.57;94.94;100306.03;5084497;28;20048;-53
2021/09/19 02:11:13;;;;;;;6.25;3.13;;;;;;;12.55;95.31;100302.59;5081725;28;20420;-52
2021/09/19 02:13:41;;;;;;;3.20;2.90;;;;;;;12.51;95.65;100301.91;5084661;28;20040;-54
2021/09/19 02:16:08;;;;;;;4.95;2.80;;;;;;;12.50;95.76;100300.19;5084497;28;20044;-53
2021/09/19 02:18:35;;;;;;;3.30;2.58;;;;;;;12.57;96.24;100288.28;5081039;28;20052;-52
2021/09/19 02:21:04;;;;;;;4.55;2.70;;;;;;;12.58;95.36;100291.81;5071475;28;20058;-52
2021/09/19 02:23:31;;;;;;;3.25;2.60;;;;;;;12.56;95.24;100285.72;5074571;28;20043;-51
2021/09/19 02:25:57;;;;;;;3.65;2.92;;;;;;;12.55;95.69;100286.66;5080700;28;20044;-52
2021/09/19 02:28:24;;;;;;;5.07;2.85;;;;;;;12.52;95.15;100278.84;5079020;28;20833;-52
2021/09/19 02:30:51;;;;;;;2.85;2.45;;;;;;;12.47;95.81;100279.09;5076354;28;20066;-53
2021/09/19 02:33:18;;;;;;;3.53;2.58;;;;;;;12.50;95.37;100278.94;5080279;28;20035;-52
2021/09/19 02:35:45;;;;;;;7.10;2.97;;;;;;;12.45;95.72;100274.81;5075605;28;20054;-53
2021/09/19 02:38:11;;;;;;;4.15;3.40;;;;;;;12.44;96.90;100279.28;5078230;28;20048;-52
2021/09/19 02:40:38;;;;;;;3.20;2.90;;;;;;;12.34;96.82;100259.50;5078255;28;20044;-52
2021/09/19 02:43:05;;;;;;;3.47;2.65;;;;;;;12.44;96.72;100273.09;5077986;28;20041;-52
2021/09/19 02:45:32;;;;;;;2.75;2.55;;;;;;;12.44;96.55;100271.31;5077383;28;20051;-53
2021/09/19 02:47:58;;;;;;;3.33;2.78;;;;;;;12.43;96.38;100272.28;5084775;28;20040;-53
2021/09/19 02:50:26;;;;;;;3.80;2.65;;;;;;;12.41;96.59;100268.00;5084504;28;20052;-53
2021/09/19 02:52:52;;;;;;;4.13;2.50;;;;;;;12.43;97.39;100277.59;5079192;28;20040;-54
2021/09/19 02:55:20;;;;;;;7.88;3.05;;;;;;;12.41;96.57;100279.47;5082965;28;20532;-53
2021/09/19 02:57:47;;;;;;;3.40;2.90;;;;;;;12.40;96.76;100276.91;5071561;28;20274;-53
2021/09/19 03:00:17;;;;;;;4.85;2.80;;;;;;;12.41;96.85;100275.97;5083097;28;20048;-53
2021/09/19 03:02:44;;;;;;;4.60;2.55;;;;;;;12.38;97.00;100278.78;5073789;28;20082;-52
2021/09/19 03:05:12;;;;;;;3.20;2.90;;;;;;;12.36;97.62;100270.03;5080357;28;20039;-50
2021/09/19 03:07:40;;;;;;;2.78;2.58;;;;;;;12.35;98.04;100263.00;5076247;28;20043;-54
2021/09/19 03:10:08;;;;;;;4.88;2.63;;;;;;;12.39;99.27;100265.41;5079144;28;20050;-52
2021/09/19 03:12:35;;;;;;;3.08;2.42;;;;;;;12.40;97.72;100253.84;5078595;28;20152;-52
2021/09/19 03:15:02;;;;;;;4.45;2.97;;;;;;;12.38;97.08;100261.06;5074795;28;20044;-52
2021/09/19 03:17:29;;;;;;;4.07;2.97;;;;;;;12.35;97.38;100253.25;5080255;28;20051;-53
2021/09/19 03:19:55;;;;;;;3.15;2.85;;;;;;;12.34;97.16;100254.19;5079486;28;20097;-51
2021/09/19 03:22:22;;;;;;;3.75;2.65;;;;;;;12.35;97.31;100247.09;5078334;28;20071;-51
2021/09/19 03:24:48;;;;;;;3.33;2.80;;;;;;;12.31;97.40;100254.34;5080917;28;20048;-52
2021/09/19 03:27:15;;;;;;;3.60;2.70;;;;;;;12.29;98.04;100251.78;5076187;28;20039;-52
2021/09/19 03:29:41;;;;;;;3.55;2.80;;;;;;;12.29;97.97;100253.59;5086393;28;20047;-51
2021/09/19 03:32:08;;;;;;;3.15;2.85;;;;;;;12.35;97.68;100260.34;5076332;28;20044;-53
2021/09/19 03:34:34;;;;;;;3.78;2.58;;;;;;;12.33;97.67;100257.78;5069406;28;20059;-51
2021/09/19 03:37:02;;;;;;;4.18;2.90;;;;;;;12.24;97.11;100243.25;5074730;28;20524;-53
2021/09/19 03:39:29;;;;;;;3.22;2.90;;;;;;;12.28;97.46;100252.72;5075503;28;20587;-52
2021/09/19 03:41:55;;;;;;;3.65;2.90;;;;;;;12.27;97.65;100258.16;5083258;28;20055;-53
2021/09/19 03:44:22;;;;;;;3.50;3.20;;;;;;;12.25;97.76;100250.28;5084609;28;20051;-52
2021/09/19 03:46:48;;;;;;;3.80;2.80;;;;;;;12.24;97.30;100248.56;5086223;28;20048;-52
2021/09/19 03:49:15;;;;;;;5.97;3.17;;;;;;;12.22;97.37;100249.56;5083013;28;20059;-54
2021/09/19 03:51:41;;;;;;;3.80;3.08;;;;;;;12.16;97.42;100247.25;5079346;28;20290;-52
2021/09/19 03:54:08;;;;;;;6.00;3.33;;;;;;;12.14;97.73;100244.69;5075199;28;20052;-51
2021/09/19 03:56:34;;;;;;;4.40;3.20;;;;;;;12.10;97.51;100239.66;5082491;28;20052;-53
2021/09/19 03:59:00;;;;;;;4.15;3.30;;;;;;;12.08;97.81;100246.84;5081615;28;20044;-52
2021/09/19 04:01:27;;;;;;;4.85;3.35;;;;;;;12.08;97.78;100246.84;5079630;28;20055;-53
2021/09/19 04:03:54;;;;;;;4.60;3.33;;;;;;;12.05;97.84;100247.00;5037560;28;20052;-52
2021/09/19 04:06:20;;;;;;;3.50;3.20;;;;;;;12.02;98.49;100255.97;5039348;28;20520;-52
2021/09/19 04:08:47;;;;;;;5.13;3.40;;;;;;;12.01;99.06;100243.66;5037853;28;20057;-52
2021/09/19 04:11:14;;;;;;;3.75;3.30;;;;;;;12.03;98.46;100247.09;5039683;28;20049;-52
2021/09/19 04:13:40;;;;;;;4.38;3.15;;;;;;;11.93;98.06;100224.66;5042391;28;20414;-51
2021/09/19 04:16:07;;;;;;;6.85;3.78;;;;;;;12.02;97.99;100240.06;5042382;28;20048;-52
2021/09/19 04:18:33;;;;;;;6.47;3.70;;;;;;;11.98;98.40;100243.81;5037515;28;20076;-52
2021/09/19 04:21:00;;;;;;;4.20;3.80;;;;;;;11.97;98.22;100247.41;5034010;28;20064;-52
2021/09/19 04:23:26;;;;;;;3.70;3.30;;;;;;;11.92;98.45;100242.38;5037521;28;20049;-53
2021/09/19 04:25:53;;;;;;;3.92;3.53;;;;;;;11.87;98.69;100241.75;5041512;28;20053;-52
2021/09/19 04:28:19;;;;;;;4.38;3.72;;;;;;;11.87;98.53;100246.22;5041117;28;20041;-53
2021/09/19 04:30:46;;;;;;;6.43;3.78;;;;;;;11.85;99.54;100248.09;5042350;28;20041;-53
2021/09/19 04:33:12;;;;;;;4.85;4.10;;;;;;;11.84;99.44;100251.69;5041289;28;20461;-53
2021/09/19 04:35:39;;;;;;;4.35;3.58;;;;;;;11.84;100.00;100246.38;5032542;28;20049;-52
2021/09/19 04:38:06;;;;;;;4.30;3.75;;;;;;;11.87;100.00;100249.72;5032368;28;20110;-52
2021/09/19 04:40:33;;;;;;;5.65;3.60;;;;;;;11.89;99.67;100254.94;5033111;28;20049;-53
2021/09/19 04:42:59;;;;;;;4.05;3.67;;;;;;;11.87;99.66;100256.81;5040554;28;20064;-53
2021/09/19 04:45:26;;;;;;;4.13;3.42;;;;;;;11.88;100.00;100259.41;5044680;28;20056;-53
2021/09/19 04:47:53;;;;;;;4.50;3.90;;;;;;;11.88;99.75;100254.09;5041689;28;20974;-52
2021/09/19 04:50:19;;;;;;;4.07;3.67;;;;;;;11.92;100.00;100254.78;5044054;28;20051;-53
2021/09/19 04:52:46;;;;;;;4.45;3.53;;;;;;;11.90;99.88;100256.66;5036746;28;20076;-52
2021/09/19 04:55:12;;;;;;;5.82;3.50;;;;;;;11.88;99.79;100258.53;5041518;28;20479;-53
2021/09/19 04:57:39;;;;;;;4.35;3.95;;;;;;;11.88;99.08;100256.75;5041543;28;20079;-53
2021/09/19 05:00:06;;;;;;;4.38;3.95;;;;;;;11.87;99.87;100260.34;5042558;28;20075;-52
2021/09/19 05:02:33;;;;;;;5.68;3.78;;;;;;;11.90;99.67;100267.28;5057021;28;20425;-53
2021/09/19 05:04:59;;;;;;;3.80;3.50;;;;;;;11.88;99.89;100272.66;5081531;28;20567;-52
2021/09/19 05:07:26;;;;;;;4.53;3.67;;;;;;;11.83;99.29;100266.75;5078062;28;20051;-52
2021/09/19 05:09:52;;;;;;;4.75;3.60;;;;;;;11.83;98.92;100274.69;5078338;28;20056;-53
2021/09/19 05:12:19;;;;;;;4.38;3.97;;;;;;;11.81;99.69;100271.25;5084918;28;20047;-53
2021/09/19 05:14:46;;;;;;;4.97;4.10;;;;;;;11.83;99.46;100271.19;5086185;28;20531;-53
2021/09/19 05:17:13;;;;;;;4.10;3.35;;;;;;;11.84;99.10;100272.91;5085241;28;20050;-52
2021/09/19 05:19:39;;;;;;;4.95;3.83;;;;;;;11.85;98.98;100264.88;5083244;28;20058;-53
2021/09/19 05:22:06;;;;;;;6.03;3.83;;;;;;;11.82;99.07;100267.69;5079090;28;20099;-52
2021/09/19 05:24:32;;;;;;;4.57;3.53;;;;;;;11.85;99.45;100274.63;5076726;28;20160;-55
2021/09/19 05:26:59;;;;;;;6.82;3.90;;;;;;;11.89;98.86;100281.47;5082342;28;20048;-53
2021/09/19 05:29:25;;;;;;;5.80;4.15;;;;;;;11.89;98.71;100270.88;5083737;28;20065;-52
2021/09/19 05:31:52;;;;;;;4.57;3.50;;;;;;;11.85;99.09;100275.47;5080218;28;20074;-53
2021/09/19 05:34:18;;;;;;;4.32;3.80;;;;;;;11.89;99.57;100270.88;5077199;28;20050;-52
2021/09/19 05:36:45;;;;;;;4.43;3.90;;;;;;;11.97;99.47;100281.91;5082978;28;20059;-53
2021/09/19 05:39:11;;;;;;;4.53;3.80;;;;;;;12.01;99.93;100286.13;5081135;28;20064;-52
2021/09/19 05:41:38;;;;;;;5.93;3.92;;;;;;;12.05;99.45;100287.66;5080217;28;20047;-53
2021/09/19 05:44:04;;;;;;;4.68;4.13;;;;;;;12.10;99.62;100274.16;5082406;28;20052;-54
2021/09/19 05:46:31;;;;;;;4.30;3.90;;;;;;;12.16;98.45;100284.41;5081700;28;20048;-52
2021/09/19 05:48:59;;;;;;;6.70;4.00;;;;;;;12.19;98.48;100287.75;5075474;28;20060;-52
2021/09/19 05:51:27;;;;;;;4.88;3.95;;;;;;;12.14;98.58;100276.53;5078256;28;20061;-56
2021/09/19 05:53:54;;;;;;;6.57;4.68;;;;;;;12.24;98.52;100288.38;5079935;28;20040;-51
2021/09/19 05:56:20;;;;;;;4.78;3.88;;;;;;;12.29;98.00;100286.31;5083984;28;20409;-52
2021/09/19 05:58:47;;;;;;;5.13;4.13;;;;;;;12.38;96.99;100282.28;5083901;28;20059;-53
2021/09/19 06:01:13;;;;;;;7.40;4.20;;;;;;;12.44;96.56;100281.06;5086196;28;20070;-51
2021/09/19 06:03:41;;;;;;;6.18;4.32;;;;;;;12.47;96.84;100278.25;5081280;28;20596;-52
2021/09/19 06:06:07;;;;;;;5.25;4.00;;;;;;;12.51;96.95;100269.19;5076021;28;20067;-53
2021/09/19 06:08:34;;;;;;;4.35;3.95;;;;;;;12.59;96.38;100280.22;5078719;28;20044;-52
2021/09/19 06:11:01;;;;;;;5.60;4.07;;;;;;;12.64;95.42;100281.66;5082193;28;20064;-52
2021/09/19 06:13:27;;;;;;;4.25;3.67;;;;;;;12.71;94.75;100287.50;5081490;28;20052;-54
2021/09/19 06:15:54;;;;;;;6.80;4.10;;;;;;;12.81;94.07;100288.66;5088918;28;20044;-52
2021/09/19 06:18:20;;;;;;;5.72;4.03;;;;;;;12.83;94.21;100293.91;5081661;28;20052;-52
2021/09/19 06:20:47;;;;;;;6.47;4.20;;;;;;;12.88;93.73;100287.38;5077599;28;20056;-51
2021/09/19 06:23:13;;;;;;;6.80;4.15;;;;;;;12.78;93.77;100264.91;5073299;28;20040;-52
2021/09/19 06:25:40;;;;;;;5.43;3.65;;;;;;;12.96;92.80;100286.91;5074908;28;20485;-52
2021/09/19 06:28:07;;;;;;;4.65;3.65;;;;;;;12.89;92.56;100266.97;5082866;28;20482;-52
2021/09/19 06:30:33;;;;;;;4.57;3.70;;;;;;;13.07;92.60;100283.63;5080372;28;20052;-53
2021/09/19 06:33:00;;;;;;;4.72;3.70;;;;;;;13.12;92.09;100292.19;5077075;28;20048;-53
2021/09/19 06:35:26;;;;;;;6.47;3.80;;;;;;;13.21;91.22;100287.22;5077973;28;20052;-52
2021/09/19 06:37:53;;;;;;;4.63;3.83;;;;;;;13.25;91.31;100295.84;5079893;28;20048;-52
2021/09/19 06:40:19;;;;;;;4.55;3.92;;;;;;;13.29;91.05;100294.75;5070385;28;20043;-52
2021/09/19 06:42:48;;;;;;;4.57;3.67;;;;;;;13.34;90.09;100295.34;5068508;28;20147;-53
2021/09/19 06:45:15;;;;;;;4.18;3.40;;;;;;;13.36;90.06;100287.25;5076026;28;20147;-52
2021/09/19 06:47:42;;;;;;;7.22;3.95;;;;;;;13.33;89.49;100289.16;5077133;28;20513;-52
2021/09/19 06:50:12;;;;;;;6.20;3.42;;;;;;;13.44;89.33;100295.63;5075520;28;20047;-52
2021/09/19 06:52:38;;;;;;;3.95;3.55;;;;;;;13.58;88.04;100296.50;5073694;28;20067;-51
2021/09/19 06:55:06;;;;;;;3.83;3.42;;;;;;;13.68;87.47;100297.66;5077081;28;20116;-51
2021/09/19 06:57:33;;;;;;;4.35;3.33;;;;;;;13.80;86.44;100289.88;5080059;28;20734;-52
2021/09/19 07:00:01;;;;;;;7.78;3.53;;;;;;;13.96;84.48;100293.28;5086157;28;20122;-50
2021/09/19 07:02:27;;;;;;;3.88;3.30;;;;;;;14.05;83.76;100295.34;5080280;28;20062;-53
2021/09/19 07:04:54;;;;;;;4.90;3.40;;;;;;;14.16;83.54;100292.91;5082605;28;20135;-52
2021/09/19 07:07:21;;;;;;;5.60;3.58;;;;;;;14.27;83.36;100290.41;5080700;28;20055;-53
2021/09/19 07:09:47;;;;;;;5.63;3.40;;;;;;;14.50;80.37;100285.41;5079678;28;20052;-51
2021/09/19 07:12:14;;;;;;;3.95;3.53;;;;;;;14.35;80.01;100269.44;5074743;28;20040;-53
2021/09/19 07:14:40;;;;;;;4.28;3.53;;;;;;;14.29;80.63;100261.84;5078991;28;20044;-53
2021/09/19 07:17:07;;;;;;;4.22;3.33;;;;;;;14.32;80.92;100263.47;5077188;28;20059;-52
2021/09/19 07:19:33;;;;;;;3.92;3.50;;;;;;;14.56;80.22;100282.38;5073822;28;20048;-53
2021/09/19 07:22:00;;;;;;;4.00;3.60;;;;;;;14.62;79.52;100284.66;5077363;28;20051;-54
2021/09/19 07:24:26;;;;;;;4.88;3.53;;;;;;;14.69;78.45;100283.28;5080643;28;20046;-52
2021/09/19 07:26:53;;;;;;;4.80;3.35;;;;;;;14.69;78.67;100291.25;5073169;28;20667;-52
2021/09/19 07:29:19;;;;;;;3.90;3.50;;;;;;;14.67;79.04;100288.69;5076011;28;20714;-53
2021/09/19 07:31:50;;;;;;;4.18;3.45;;;;;;;14.73;78.49;100292.78;5080634;28;20044;-52
2021/09/19 07:34:17;;;;;;;4.05;3.65;;;;;;;14.75;78.66;100282.88;5078521;28;20044;-52
2021/09/19 07:36:46;;;;;;;4.20;3.47;;;;;;;15.00;78.37;100300.75;5077576;28;20039;-53
2021/09/19 07:39:13;;;;;;;3.63;3.33;;;;;;;15.16;77.49;100292.56;5077005;28;20052;-53
2021/09/19 07:41:40;;;;;;;3.92;3.53;;;;;;;15.30;76.14;100298.69;5080806;28;20473;-52
2021/09/19 07:44:06;;;;;;;4.45;3.72;;;;;;;15.40;75.79;100299.78;5074113;28;20503;-51
2021/09/19 07:46:33;;;;;;;4.78;3.90;;;;;;;15.49;74.20;100294.75;5074522;28;20063;-55
2021/09/19 07:49:00;;;;;;;4.10;3.67;;;;;;;15.49;73.86;100298.28;5075176;28;20048;-53
2021/09/19 07:51:27;;;;;;;5.05;3.47;;;;;;;15.52;73.48;100289.22;5081790;28;20051;-54
2021/09/19 07:53:53;;;;;;;4.72;3.50;;;;;;;15.59;73.69;100298.53;5068194;28;20048;-52
2021/09/19 07:56:21;;;;;;;4.28;3.33;;;;;;;15.74;72.76;100303.66;5076713;28;20115;-52
2021/09/19 07:58:48;;;;;;;4.57;4.05;;;;;;;15.82;71.83;100303.13;5081000;28;20142;-51
2021/09/19 08:01:15;;;;;;;6.55;3.67;;;;;;;15.89;72.29;100298.22;5072838;28;20055;-50
2021/09/19 08:03:47;;;;;;;4.68;3.90;;;;;;;16.01;71.29;100302.69;5071700;28;20063;-52
2021/09/19 08:06:15;;;;;;;3.67;3.20;;;;;;;16.12;70.13;100308.97;5075296;28;20048;-52
2021/09/19 08:08:42;;;;;;;4.78;3.40;;;;;;;16.23;70.20;100312.69;5072644;28;20102;-53
2021/09/19 08:11:10;;;;;;;4.32;3.70;;;;;;;16.31;69.21;100307.66;5068537;28;20529;-52
2021/09/19 08:13:37;;;;;;;4.43;3.63;;;;;;;16.30;68.10;100316.66;5071770;28;20138;-52
2021/09/19 08:16:03;;;;;;;4.43;3.63;;;;;;;16.26;68.38;100324.03;5072887;28;20055;-52
2021/09/19 08:18:30;;;;;;;4.78;3.67;;;;;;;16.13;69.27;100326.72;5075970;28;20044;-53
2021/09/19 08:20:56;;;;;;;4.22;3.40;;;;;;;16.25;69.01;100329.47;5077166;28;20048;-52
2021/09/19 08:23:23;;;;;;;4.60;3.78;;;;;;;16.35;68.40;100325.19;5058593;28;20505;-52
2021/09/19 08:25:49;;;;;;;5.97;4.00;;;;;;;16.32;68.27;100328.94;5068452;28;20052;-53
2021/09/19 08:28:16;;;;;;;4.15;3.45;;;;;;;16.33;68.39;100333.31;5067420;28;20047;-52
2021/09/19 08:30:42;;;;;;;3.85;3.45;;;;;;;16.37;68.61;100323.28;5070188;28;20048;-53
2021/09/19 08:33:10;;;;;;;4.53;3.72;;;;;;;16.47;69.14;100317.13;5070029;28;20058;-52
2021/09/19 08:35:38;;;;;;;4.30;3.88;;;;;;;16.82;67.11;100329.78;5071752;28;20040;-51
2021/09/19 08:38:06;;;;;;;3.92;3.50;;;;;;;16.88;65.78;100333.81;5074489;28;20044;-51
2021/09/19 08:40:33;;;;;;;4.07;3.42;;;;;;;16.82;66.57;100338.66;5056010;28;20047;-52
2021/09/19 08:43:00;;;;;;;4.15;3.47;;;;;;;16.85;66.06;100329.53;5064623;28;22036;-54
2021/09/19 08:45:27;;;;;;;3.80;3.42;;;;;;;17.03;66.26;100338.88;5066911;28;20051;-52
2021/09/19 08:47:53;;;;;;;3.80;3.00;;;;;;;17.11;65.38;100320.44;5075215;28;20040;-51
2021/09/19 08:50:21;;;;;;;4.65;3.38;;;;;;;17.42;64.96;100334.19;5076571;28;20122;-53
2021/09/19 08:52:49;;;;;;;3.58;3.28;;;;;;;17.71;63.87;100329.28;5072908;28;20064;-53
2021/09/19 08:55:16;;;;;;;3.67;3.13;;;;;;;18.13;61.97;100330.41;5074876;28;20425;-52
2021/09/19 08:57:43;;;;;;;3.70;3.30;;;;;;;18.83;59.00;100328.28;5075698;28;20044;-53
2021/09/19 09:00:12;;;;;;;5.10;3.67;;;;;;;19.02;57.32;100333.00;5074560;28;20067;-52
2021/09/19 09:02:47;;;;;;;4.88;2.90;;;;;;;19.11;57.38;100334.91;5073835;28;20048;-53
2021/09/19 09:05:29;;;;;;;3.38;2.88;;;;;;;19.43;56.99;100332.19;5071707;28;20145;-53
2021/09/19 09:07:58;;;;;;;4.82;3.10;;;;;;;19.79;55.42;100328.25;5071756;28;20044;-53
2021/09/19 09:10:55;;;;;;;3.78;3.00;;;;;;;19.87;56.14;100332.94;5076495;28;20050;-53
2021/09/19 09:13:31;;;;;;;3.90;3.35;;;;;;;20.21;54.39;100320.94;5052243;28;20048;-53
2021/09/19 09:16:06;;;;;;;3.47;2.90;;;;;;;20.42;53.09;100323.63;5068272;28;20040;-53
2021/09/19 09:18:37;;;;;;;5.22;3.45;;;;;;;20.09;53.55;100326.56;5074480;28;20311;-53
2021/09/19 09:21:17;;;;;;;3.58;3.28;;;;;;;20.07;54.54;100328.53;5070258;28;20063;-53
2021/09/19 09:23:45;;;;;;;3.38;3.08;;;;;;;20.20;53.78;100323.75;5075577;28;20044;-52
2021/09/19 09:26:28;;;;;;;4.38;3.00;;;;;;;20.07;53.05;100310.56;5073631;28;20048;-53
2021/09/19 09:29:01;;;;;;;3.42;3.13;;;;;;;20.12;53.63;100310.16;5074800;28;20046;-52
2021/09/19 09:31:32;;;;;;;3.83;3.10;;;;;;;20.26;53.67;100315.16;5070714;28;20409;-52
2021/09/19 09:34:16;;;;;;;2.92;2.63;;;;;;;20.54;54.12;100319.81;5073612;28;20097;-53
2021/09/19 09:36:43;;;;;;;3.47;2.85;;;;;;;20.76;52.06;100315.22;5070354;28;20039;-52
2021/09/19 09:39:29;;;;;;;3.53;3.10;;;;;;;20.94;51.56;100310.81;5074872;28;20050;-54
2021/09/19 09:42:02;;;;;;;2.90;2.67;;;;;;;21.33;51.58;100309.03;5075105;28;20055;-52
2021/09/19 09:44:28;;;;;;;3.05;2.75;;;;;;;22.01;47.94;100318.72;5071752;28;20053;-52
2021/09/19 09:46:55;;;;;;;3.38;2.95;;;;;;;22.48;47.89;100307.84;5079158;28;20068;-53
2021/09/19 09:49:39;;;;;;;4.18;2.80;;;;;;;23.01;46.36;100310.66;5075333;28;20048;-51
2021/09/19 09:52:10;;;;;;;3.58;2.83;;;;;;;23.39;44.09;100305.94;5068888;28;20044;-52
2021/09/19 09:54:45;;;;;;;3.10;2.80;;;;;;;22.44;46.06;100317.25;5077149;28;20059;-51
2021/09/19 09:57:14;;;;;;;3.95;2.65;;;;;;;21.87;48.03;100312.91;5074776;28;20040;-53
2021/09/19 09:59:44;;;;;;;3.22;2.60;;;;;;;22.15;47.88;100308.44;5074862;28;20040;-53
2021/09/19 10:02:12;;;;;;;3.47;3.08;;;;;;;22.08;48.39;100318.97;5080263;28;20044;-52
2021/09/19 10:04:40;;;;;;;3.08;2.78;;;;;;;21.81;47.95;100305.41;5074719;28;20044;-54
2021/09/19 10:07:07;;;;;;;3.28;2.97;;;;;;;21.42;49.39;100310.00;5069993;28;20048;-53
2021/09/19 10:09:34;;;;;;;3.40;2.88;;;;;;;21.44;48.57;100314.25;5072959;28;20055;-53
2021/09/19 10:12:02;;;;;;;5.07;2.92;;;;;;;21.55;48.63;100308.72;5076571;28;20048;-53
2021/09/19 10:14:30;;;;;;;4.28;2.90;;;;;;;21.50;50.38;100310.13;5079174;28;20094;-54
2021/09/19 10:16:56;;;;;;;3.25;2.80;;;;;;;21.38;49.97;100305.91;5075739;28;20048;-53
2021/09/19 10:19:23;;;;;;;4.13;3.55;;;;;;;21.08;49.44;100304.19;5075056;28;20052;-51
2021/09/19 10:21:51;;;;;;;3.10;2.80;;;;;;;20.59;50.99;100309.50;5075704;28;20059;-53
2021/09/19 10:24:18;;;;;;;3.30;3.00;;;;;;;20.09;53.06;100308.59;5071091;28;20365;-53
2021/09/19 10:26:56;;;;;;;3.10;2.80;;;;;;;19.68;54.92;100298.75;5062211;28;20147;-51
2021/09/19 10:29:27;;;;;;;5.07;3.45;;;;;;;19.45;56.55;100289.09;5068074;28;20051;-50
2021/09/19 10:31:57;;;;;;;4.53;3.22;;;;;;;19.34;57.19;100299.91;5079685;28;20052;-51
2021/09/19 10:34:30;;;;;;;3.65;2.90;;;;;;;19.26;56.76;100301.41;5080124;28;20040;-55
2021/09/19 10:36:58;;;;;;;3.20;2.90;;;;;;;19.10;56.22;100289.41;5077925;28;20505;-51
2021/09/19 10:39:30;;;;;;;3.67;3.15;;;;;;;19.13;57.13;100291.84;5075366;28;20608;-60
2021/09/19 10:42:20;;;;;;;3.03;2.72;;;;;;;19.56;56.22;100297.97;5078644;28;20485;-52
2021/09/19 10:44:49;;;;;;;3.35;3.00;;;;;;;19.68;55.82;100292.50;5076519;28;20074;-52
2021/09/19 10:47:25;;;;;;;3.53;3.20;;;;;;;19.83;56.01;100289.34;5067857;28;20048;-51
2021/09/19 10:50:11;;;;;;;4.45;2.90;;;;;;;19.83;55.50;100289.34;5070948;28;20051;-52
2021/09/19 10:52:43;;;;;;;3.88;3.58;;;;;;;20.23;55.13;100285.84;5073342;28;20051;-51
2021/09/19 10:55:33;;;;;;;3.42;3.05;;;;;;;21.41;51.64;100276.00;5074273;28;20803;-52
2021/09/19 10:58:20;;;;;;;3.88;3.30;;;;;;;21.73;49.50;100271.06;5077919;28;20051;-52
2021/09/19 11:01:05;;;;;;;4.60;3.10;;;;;;;21.16;51.10;100266.63;5076842;28;20052;-51
2021/09/19 11:03:32;;;;;;;3.33;2.97;;;;;;;20.77;52.08;100269.31;5069181;28;20044;-51
2021/09/19 11:05:59;;;;;;;3.20;2.90;;;;;;;20.58;53.72;100264.75;5067243;28;20473;-54
2021/09/19 11:08:34;;;;;;;4.03;3.30;;;;;;;20.63;53.08;100261.63;5064628;28;20067;-51
2021/09/19 11:11:01;;;;;;;3.30;3.00;;;;;;;20.57;53.00;100260.38;5063979;28;20976;-54
2021/09/19 11:13:41;;;;;;;3.35;3.05;;;;;;;20.85;54.58;100263.22;5065919;28;20047;-53
2021/09/19 11:16:07;;;;;;;3.40;3.05;;;;;;;22.27;49.21;100261.38;5068438;28;20040;-54
2021/09/19 11:18:34;;;;;;;3.95;3.35;;;;;;;22.93;46.78;100245.78;5067691;28;20051;-54
2021/09/19 11:21:18;;;;;;;4.55;3.28;;;;;;;22.33;48.08;100260.78;5069886;28;20139;-52
2021/09/19 11:23:48;;;;;;;3.30;3.00;;;;;;;21.73;48.96;100257.59;5073739;28;20070;-53
2021/09/19 11:26:17;;;;;;;3.97;3.35;;;;;;;21.26;49.96;100254.88;5075693;28;20047;-53
2021/09/19 11:28:45;;;;;;;3.17;2.95;;;;;;;21.48;49.96;100258.25;5070045;28;20051;-52